sensor_id;sensor_type;location;lat;lon;timestamp;pressure;altitude;pressure_sealevel;temperature
74536;BMP180;63013;51.104;-115.370;2022-09-12T00:00:05;87035.80;;;25.50
74536;BMP180;63013;51.104;-115.370;2022-09-12T00:02:42;87038.60;;;25.50
74536;BMP180;63013;51.104;-115.370;2022-09-12T00:05:09;87039.40;;;25.54
74536;BMP180;63013;51.104;-115.370;2022-09-12T00:07:40;87041.40;;;25.58
74536;BMP180;63013;51.104;-115.370;2022-09-12T00:10:23;87051.60;;;25.60
74536;BMP180;63013;51.104;-115.370;2022-09-12T00:13:15;87053.60;;;25.60
74536;BMP180;63013;51.104;-115.370;2022-09-12T00:15:53;87049.60;;;25.60
74536;BMP180;63013;51.104;-115.370;2022-09-12T00:18:40;87060.80;;;25.60
74536;BMP180;63013;51.104;-115.370;2022-09-12T00:21:34;87063.40;;;25.60
74536;BMP180;63013;51.104;-115.370;2022-09-12T00:24:30;87061.80;;;25.60
74536;BMP180;63013;51.104;-115.370;2022-09-12T00:27:23;87067.80;;;25.60
74536;BMP180;63013;51.104;-115.370;2022-09-12T00:29:51;87060.40;;;25.60
74536;BMP180;63013;51.104;-115.370;2022-09-12T00:32:21;87062.40;;;25.60
74536;BMP180;63013;51.104;-115.370;2022-09-12T00:34:48;87072.40;;;25.60
74536;BMP180;63013;51.104;-115.370;2022-09-12T00:37:15;87068.00;;;25.62
74536;BMP180;63013;51.104;-115.370;2022-09-12T00:39:52;87069.20;;;25.66
74536;BMP180;63013;51.104;-115.370;2022-09-12T00:42:43;87072.60;;;25.70
74536;BMP180;63013;51.104;-115.370;2022-09-12T00:48:05;87064.80;;;25.70
74536;BMP180;63013;51.104;-115.370;2022-09-12T00:50:41;87059.40;;;25.70
74536;BMP180;63013;51.104;-115.370;2022-09-12T00:53:12;87059.40;;;25.70
74536;BMP180;63013;51.104;-115.370;2022-09-12T00:55:43;87055.60;;;25.70
74536;BMP180;63013;51.104;-115.370;2022-09-12T00:58:33;87044.20;;;25.70
74536;BMP180;63013;51.104;-115.370;2022-09-12T01:01:18;87047.00;;;25.70
74536;BMP180;63013;51.104;-115.370;2022-09-12T01:03:46;87045.00;;;25.70
74536;BMP180;63013;51.104;-115.370;2022-09-12T01:06:25;87044.00;;;25.70
74536;BMP180;63013;51.104;-115.370;2022-09-12T01:09:07;87045.20;;;25.70
74536;BMP180;63013;51.104;-115.370;2022-09-12T01:11:40;87044.60;;;25.70
74536;BMP180;63013;51.104;-115.370;2022-09-12T01:14:41;87046.80;;;25.70
74536;BMP180;63013;51.104;-115.370;2022-09-12T01:24:41;87037.20;;;25.70
74536;BMP180;63013;51.104;-115.370;2022-09-12T01:31:11;87034.80;;;25.70
74536;BMP180;63013;51.104;-115.370;2022-09-12T01:34:30;87043.40;;;25.70
74536;BMP180;63013;51.104;-115.370;2022-09-12T01:38:01;87052.60;;;25.70
74536;BMP180;63013;51.104;-115.370;2022-09-12T01:40:30;87055.40;;;25.70
74536;BMP180;63013;51.104;-115.370;2022-09-12T01:43:16;87063.80;;;25.70
74536;BMP180;63013;51.104;-115.370;2022-09-12T01:46:30;87066.20;;;25.70
74536;BMP180;63013;51.104;-115.370;2022-09-12T01:49:38;87068.20;;;25.70
74536;BMP180;63013;51.104;-115.370;2022-09-12T01:55:25;87072.00;;;25.70
74536;BMP180;63013;51.104;-115.370;2022-09-12T02:01:01;87084.20;;;25.70
74536;BMP180;63013;51.104;-115.370;2022-09-12T02:03:59;87079.40;;;25.70
74536;BMP180;63013;51.104;-115.370;2022-09-12T02:07:05;87082.40;;;25.68
74536;BMP180;63013;51.104;-115.370;2022-09-12T02:12:40;87074.40;;;25.66
74536;BMP180;63013;51.104;-115.370;2022-09-12T02:15:14;87091.60;;;25.62
74536;BMP180;63013;51.104;-115.370;2022-09-12T02:17:48;87089.80;;;25.62
74536;BMP180;63013;51.104;-115.370;2022-09-12T02:20:26;87090.60;;;25.62
74536;BMP180;63013;51.104;-115.370;2022-09-12T02:23:11;87088.40;;;25.60
74536;BMP180;63013;51.104;-115.370;2022-09-12T02:25:43;87093.60;;;25.64
74536;BMP180;63013;51.104;-115.370;2022-09-12T02:28:22;87095.20;;;25.60
74536;BMP180;63013;51.104;-115.370;2022-09-12T02:31:26;87101.00;;;25.60
74536;BMP180;63013;51.104;-115.370;2022-09-12T02:34:35;87102.80;;;25.60
74536;BMP180;63013;51.104;-115.370;2022-09-12T02:40:25;87108.00;;;25.60
74536;BMP180;63013;51.104;-115.370;2022-09-12T02:43:04;87120.40;;;25.60
74536;BMP180;63013;51.104;-115.370;2022-09-12T02:46:02;87123.80;;;25.60
74536;BMP180;63013;51.104;-115.370;2022-09-12T02:48:39;87127.00;;;25.60
74536;BMP180;63013;51.104;-115.370;2022-09-12T02:51:28;87126.00;;;25.60
74536;BMP180;63013;51.104;-115.370;2022-09-12T02:56:43;87115.80;;;25.60
74536;BMP180;63013;51.104;-115.370;2022-09-12T02:59:16;87127.60;;;25.60
74536;BMP180;63013;51.104;-115.370;2022-09-12T03:02:14;87127.00;;;25.60
74536;BMP180;63013;51.104;-115.370;2022-09-12T03:12:46;87146.80;;;25.60
74536;BMP180;63013;51.104;-115.370;2022-09-12T03:18:54;87135.80;;;25.58
74536;BMP180;63013;51.104;-115.370;2022-09-12T03:22:19;87130.40;;;25.54
74536;BMP180;63013;51.104;-115.370;2022-09-12T03:25:38;87120.80;;;25.54
74536;BMP180;63013;51.104;-115.370;2022-09-12T03:28:38;87117.40;;;25.50
74536;BMP180;63013;51.104;-115.370;2022-09-12T03:31:29;87119.00;;;25.50
74536;BMP180;63013;51.104;-115.370;2022-09-12T03:33:59;87123.20;;;25.50
74536;BMP180;63013;51.104;-115.370;2022-09-12T03:36:31;87126.60;;;25.50
74536;BMP180;63013;51.104;-115.370;2022-09-12T03:39:33;87137.00;;;25.50
74536;BMP180;63013;51.104;-115.370;2022-09-12T03:41:59;87145.60;;;25.50
74536;BMP180;63013;51.104;-115.370;2022-09-12T03:45:07;87155.00;;;25.50
74536;BMP180;63013;51.104;-115.370;2022-09-12T03:48:08;87166.40;;;25.50
74536;BMP180;63013;51.104;-115.370;2022-09-12T03:50:38;87174.00;;;25.50
74536;BMP180;63013;51.104;-115.370;2022-09-12T03:53:17;87179.20;;;25.50
74536;BMP180;63013;51.104;-115.370;2022-09-12T03:55:48;87182.80;;;25.50
74536;BMP180;63013;51.104;-115.370;2022-09-12T03:58:18;87192.00;;;25.50
74536;BMP180;63013;51.104;-115.370;2022-09-12T04:00:45;87193.60;;;25.50
74536;BMP180;63013;51.104;-115.370;2022-09-12T04:03:16;87197.60;;;25.50
74536;BMP180;63013;51.104;-115.370;2022-09-12T04:05:51;87207.60;;;25.50
74536;BMP180;63013;51.104;-115.370;2022-09-12T04:08:27;87198.40;;;25.50
74536;BMP180;63013;51.104;-115.370;2022-09-12T04:11:24;87207.40;;;25.50
74536;BMP180;63013;51.104;-115.370;2022-09-12T04:14:18;87213.60;;;25.50
74536;BMP180;63013;51.104;-115.370;2022-09-12T04:16:45;87213.80;;;25.48
74536;BMP180;63013;51.104;-115.370;2022-09-12T04:19:15;87218.60;;;25.48
74536;BMP180;63013;51.104;-115.370;2022-09-12T04:21:43;87214.00;;;25.44
74536;BMP180;63013;51.104;-115.370;2022-09-12T04:24:25;87213.60;;;25.44
74536;BMP180;63013;51.104;-115.370;2022-09-12T04:26:53;87215.00;;;25.40
74536;BMP180;63013;51.104;-115.370;2022-09-12T04:29:21;87216.00;;;25.40
74536;BMP180;63013;51.104;-115.370;2022-09-12T04:31:53;87221.40;;;25.40
74536;BMP180;63013;51.104;-115.370;2022-09-12T04:34:40;87219.80;;;25.40
74536;BMP180;63013;51.104;-115.370;2022-09-12T04:37:22;87224.20;;;25.40
74536;BMP180;63013;51.104;-115.370;2022-09-12T04:40:14;87226.40;;;25.40
74536;BMP180;63013;51.104;-115.370;2022-09-12T04:42:44;87229.60;;;25.40
74536;BMP180;63013;51.104;-115.370;2022-09-12T04:45:12;87226.80;;;25.40
74536;BMP180;63013;51.104;-115.370;2022-09-12T04:47:42;87236.20;;;25.40
74536;BMP180;63013;51.104;-115.370;2022-09-12T04:50:15;87233.60;;;25.40
74536;BMP180;63013;51.104;-115.370;2022-09-12T04:52:55;87239.60;;;25.40
74536;BMP180;63013;51.104;-115.370;2022-09-12T04:55:24;87243.80;;;25.40
74536;BMP180;63013;51.104;-115.370;2022-09-12T04:58:06;87240.80;;;25.36
74536;BMP180;63013;51.104;-115.370;2022-09-12T05:00:48;87242.20;;;25.30
74536;BMP180;63013;51.104;-115.370;2022-09-12T05:03:18;87249.80;;;25.30
74536;BMP180;63013;51.104;-115.370;2022-09-12T05:05:48;87251.20;;;25.30
74536;BMP180;63013;51.104;-115.370;2022-09-12T05:08:36;87252.80;;;25.30
74536;BMP180;63013;51.104;-115.370;2022-09-12T05:11:25;87257.80;;;25.30
74536;BMP180;63013;51.104;-115.370;2022-09-12T05:14:13;87257.60;;;25.30
74536;BMP180;63013;51.104;-115.370;2022-09-12T05:17:03;87260.20;;;25.30
74536;BMP180;63013;51.104;-115.370;2022-09-12T05:19:31;87267.20;;;25.30
74536;BMP180;63013;51.104;-115.370;2022-09-12T05:22:01;87263.80;;;25.30
74536;BMP180;63013;51.104;-115.370;2022-09-12T05:24:30;87263.80;;;25.30
74536;BMP180;63013;51.104;-115.370;2022-09-12T05:27:18;87264.20;;;25.30
74536;BMP180;63013;51.104;-115.370;2022-09-12T05:30:03;87262.80;;;25.30
74536;BMP180;63013;51.104;-115.370;2022-09-12T05:32:31;87253.80;;;25.30
74536;BMP180;63013;51.104;-115.370;2022-09-12T05:35:02;87257.20;;;25.26
74536;BMP180;63013;51.104;-115.370;2022-09-12T05:37:32;87258.00;;;25.24
74536;BMP180;63013;51.104;-115.370;2022-09-12T05:40:07;87268.60;;;25.24
74536;BMP180;63013;51.104;-115.370;2022-09-12T05:42:40;87268.60;;;25.22
74536;BMP180;63013;51.104;-115.370;2022-09-12T05:45:11;87267.20;;;25.22
74536;BMP180;63013;51.104;-115.370;2022-09-12T05:47:39;87268.00;;;25.20
74536;BMP180;63013;51.104;-115.370;2022-09-12T05:50:19;87269.40;;;25.20
74536;BMP180;63013;51.104;-115.370;2022-09-12T05:52:52;87278.60;;;25.20
74536;BMP180;63013;51.104;-115.370;2022-09-12T05:55:24;87282.20;;;25.20
74536;BMP180;63013;51.104;-115.370;2022-09-12T05:57:54;87281.60;;;25.20
74536;BMP180;63013;51.104;-115.370;2022-09-12T06:00:25;87281.00;;;25.20
74536;BMP180;63013;51.104;-115.370;2022-09-12T06:02:53;87281.80;;;25.20
74536;BMP180;63013;51.104;-115.370;2022-09-12T06:05:29;87285.80;;;25.20
74536;BMP180;63013;51.104;-115.370;2022-09-12T06:08:03;87289.40;;;25.20
74536;BMP180;63013;51.104;-115.370;2022-09-12T06:10:30;87290.00;;;25.20
74536;BMP180;63013;51.104;-115.370;2022-09-12T06:13:06;87293.60;;;25.20
74536;BMP180;63013;51.104;-115.370;2022-09-12T06:15:37;87293.80;;;25.16
74536;BMP180;63013;51.104;-115.370;2022-09-12T06:18:18;87295.80;;;25.18
74536;BMP180;63013;51.104;-115.370;2022-09-12T06:20:46;87299.20;;;25.14
74536;BMP180;63013;51.104;-115.370;2022-09-12T06:23:14;87301.60;;;25.12
74536;BMP180;63013;51.104;-115.370;2022-09-12T06:26:03;87300.40;;;25.10
74536;BMP180;63013;51.104;-115.370;2022-09-12T06:28:41;87301.80;;;25.10
74536;BMP180;63013;51.104;-115.370;2022-09-12T06:31:15;87307.20;;;25.10
74536;BMP180;63013;51.104;-115.370;2022-09-12T06:33:58;87313.60;;;25.10
74536;BMP180;63013;51.104;-115.370;2022-09-12T06:36:30;87320.00;;;25.10
74536;BMP180;63013;51.104;-115.370;2022-09-12T06:39:09;87316.80;;;25.10
74536;BMP180;63013;51.104;-115.370;2022-09-12T06:41:40;87325.80;;;25.10
74536;BMP180;63013;51.104;-115.370;2022-09-12T06:44:36;87328.20;;;25.10
74536;BMP180;63013;51.104;-115.370;2022-09-12T06:47:15;87328.40;;;25.10
74536;BMP180;63013;51.104;-115.370;2022-09-12T06:49:55;87331.40;;;25.10
74536;BMP180;63013;51.104;-115.370;2022-09-12T06:52:23;87333.00;;;25.10
74536;BMP180;63013;51.104;-115.370;2022-09-12T06:55:13;87331.80;;;25.10
74536;BMP180;63013;51.104;-115.370;2022-09-12T06:58:02;87331.40;;;25.10
74536;BMP180;63013;51.104;-115.370;2022-09-12T07:00:34;87337.60;;;25.10
74536;BMP180;63013;51.104;-115.370;2022-09-12T07:03:04;87341.60;;;25.10
74536;BMP180;63013;51.104;-115.370;2022-09-12T07:05:36;87338.40;;;25.10
74536;BMP180;63013;51.104;-115.370;2022-09-12T07:08:15;87344.40;;;25.08
74536;BMP180;63013;51.104;-115.370;2022-09-12T07:10:48;87347.80;;;25.08
74536;BMP180;63013;51.104;-115.370;2022-09-12T07:13:30;87349.40;;;25.04
74536;BMP180;63013;51.104;-115.370;2022-09-12T07:16:10;87352.20;;;25.00
74536;BMP180;63013;51.104;-115.370;2022-09-12T07:18:39;87357.60;;;25.00
74536;BMP180;63013;51.104;-115.370;2022-09-12T07:21:30;87358.80;;;25.00
74536;BMP180;63013;51.104;-115.370;2022-09-12T07:24:20;87363.20;;;25.00
74536;BMP180;63013;51.104;-115.370;2022-09-12T07:27:00;87357.00;;;25.00
74536;BMP180;63013;51.104;-115.370;2022-09-12T07:29:41;87361.60;;;25.00
74536;BMP180;63013;51.104;-115.370;2022-09-12T07:32:15;87357.60;;;25.00
74536;BMP180;63013;51.104;-115.370;2022-09-12T07:34:44;87364.40;;;25.00
74536;BMP180;63013;51.104;-115.370;2022-09-12T07:37:21;87363.80;;;25.00
74536;BMP180;63013;51.104;-115.370;2022-09-12T07:39:55;87364.40;;;25.00
74536;BMP180;63013;51.104;-115.370;2022-09-12T07:42:49;87368.20;;;25.00
74536;BMP180;63013;51.104;-115.370;2022-09-12T07:45:16;87369.20;;;25.00
74536;BMP180;63013;51.104;-115.370;2022-09-12T07:47:55;87372.40;;;25.00
74536;BMP180;63013;51.104;-115.370;2022-09-12T07:50:26;87379.00;;;25.00
74536;BMP180;63013;51.104;-115.370;2022-09-12T07:53:03;87387.80;;;25.00
74536;BMP180;63013;51.104;-115.370;2022-09-12T07:55:31;87389.20;;;24.94
74536;BMP180;63013;51.104;-115.370;2022-09-12T07:57:59;87393.60;;;24.92
74536;BMP180;63013;51.104;-115.370;2022-09-12T08:00:26;87392.20;;;24.90
74536;BMP180;63013;51.104;-115.370;2022-09-12T08:03:08;87397.60;;;24.90
74536;BMP180;63013;51.104;-115.370;2022-09-12T08:05:39;87397.80;;;24.90
74536;BMP180;63013;51.104;-115.370;2022-09-12T08:08:15;87395.20;;;24.90
74536;BMP180;63013;51.104;-115.370;2022-09-12T08:10:42;87398.00;;;24.90
74536;BMP180;63013;51.104;-115.370;2022-09-12T08:13:13;87405.60;;;24.90
74536;BMP180;63013;51.104;-115.370;2022-09-12T08:15:49;87408.40;;;24.90
74536;BMP180;63013;51.104;-115.370;2022-09-12T08:18:16;87412.60;;;24.90
74536;BMP180;63013;51.104;-115.370;2022-09-12T08:21:00;87412.80;;;24.90
74536;BMP180;63013;51.104;-115.370;2022-09-12T08:23:28;87409.00;;;24.90
74536;BMP180;63013;51.104;-115.370;2022-09-12T08:25:58;87416.40;;;24.90
74536;BMP180;63013;51.104;-115.370;2022-09-12T08:28:31;87418.20;;;24.90
74536;BMP180;63013;51.104;-115.370;2022-09-12T08:31:07;87424.00;;;24.90
74536;BMP180;63013;51.104;-115.370;2022-09-12T08:33:38;87427.20;;;24.90
74536;BMP180;63013;51.104;-115.370;2022-09-12T08:36:10;87430.80;;;24.90
74536;BMP180;63013;51.104;-115.370;2022-09-12T08:38:43;87433.40;;;24.90
74536;BMP180;63013;51.104;-115.370;2022-09-12T08:41:35;87432.20;;;24.90
74536;BMP180;63013;51.104;-115.370;2022-09-12T08:47:41;87439.00;;;24.82
74536;BMP180;63013;51.104;-115.370;2022-09-12T08:50:20;87446.60;;;24.80
74536;BMP180;63013;51.104;-115.370;2022-09-12T08:52:57;87447.20;;;24.80
74536;BMP180;63013;51.104;-115.370;2022-09-12T08:56:01;87448.00;;;24.80
74536;BMP180;63013;51.104;-115.370;2022-09-12T08:58:40;87452.00;;;24.80
74536;BMP180;63013;51.104;-115.370;2022-09-12T09:01:36;87454.60;;;24.80
74536;BMP180;63013;51.104;-115.370;2022-09-12T09:04:36;87456.20;;;24.80
74536;BMP180;63013;51.104;-115.370;2022-09-12T09:11:27;87463.40;;;24.80
74536;BMP180;63013;51.104;-115.370;2022-09-12T09:17:41;87462.80;;;24.78
74536;BMP180;63013;51.104;-115.370;2022-09-12T09:23:49;87478.20;;;24.70
74536;BMP180;63013;51.104;-115.370;2022-09-12T09:26:32;87485.00;;;24.70
74536;BMP180;63013;51.104;-115.370;2022-09-12T09:29:51;87492.00;;;24.70
74536;BMP180;63013;51.104;-115.370;2022-09-12T09:32:30;87497.60;;;24.70
74536;BMP180;63013;51.104;-115.370;2022-09-12T09:35:24;87515.60;;;24.70
74536;BMP180;63013;51.104;-115.370;2022-09-12T09:38:21;87526.60;;;24.70
74536;BMP180;63013;51.104;-115.370;2022-09-12T09:43:59;87535.40;;;24.70
74536;BMP180;63013;51.104;-115.370;2022-09-12T09:46:27;87529.20;;;24.70
74536;BMP180;63013;51.104;-115.370;2022-09-12T09:49:10;87533.80;;;24.70
74536;BMP180;63013;51.104;-115.370;2022-09-12T09:51:45;87534.80;;;24.70
74536;BMP180;63013;51.104;-115.370;2022-09-12T09:54:54;87541.40;;;24.64
74536;BMP180;63013;51.104;-115.370;2022-09-12T09:57:44;87547.00;;;24.62
74536;BMP180;63013;51.104;-115.370;2022-09-12T10:00:50;87553.40;;;24.60
74536;BMP180;63013;51.104;-115.370;2022-09-12T10:04:08;87568.80;;;24.60
74536;BMP180;63013;51.104;-115.370;2022-09-12T10:07:01;87575.00;;;24.60
74536;BMP180;63013;51.104;-115.370;2022-09-12T10:09:34;87579.60;;;24.60
74536;BMP180;63013;51.104;-115.370;2022-09-12T10:12:27;87579.20;;;24.60
74536;BMP180;63013;51.104;-115.370;2022-09-12T10:15:12;87586.60;;;24.60
74536;BMP180;63013;51.104;-115.370;2022-09-12T10:17:54;87587.40;;;24.60
74536;BMP180;63013;51.104;-115.370;2022-09-12T10:20:43;87590.60;;;24.60
74536;BMP180;63013;51.104;-115.370;2022-09-12T10:24:25;87595.80;;;24.60
74536;BMP180;63013;51.104;-115.370;2022-09-12T10:30:18;87601.60;;;24.60
74536;BMP180;63013;51.104;-115.370;2022-09-12T10:32:50;87602.60;;;24.60
74536;BMP180;63013;51.104;-115.370;2022-09-12T10:35:46;87602.80;;;24.58
74536;BMP180;63013;51.104;-115.370;2022-09-12T10:38:32;87608.20;;;24.52
74536;BMP180;63013;51.104;-115.370;2022-09-12T10:41:20;87611.80;;;24.50
74536;BMP180;63013;51.104;-115.370;2022-09-12T10:44:14;87616.40;;;24.50
74536;BMP180;63013;51.104;-115.370;2022-09-12T10:47:22;87623.00;;;24.50
74536;BMP180;63013;51.104;-115.370;2022-09-12T10:49:51;87627.20;;;24.50
74536;BMP180;63013;51.104;-115.370;2022-09-12T10:52:24;87629.40;;;24.50
74536;BMP180;63013;51.104;-115.370;2022-09-12T10:55:10;87632.80;;;24.50
74536;BMP180;63013;51.104;-115.370;2022-09-12T11:05:08;87650.60;;;24.50
74536;BMP180;63013;51.104;-115.370;2022-09-12T11:08:31;87652.20;;;24.50
74536;BMP180;63013;51.104;-115.370;2022-09-12T11:11:57;87664.60;;;24.50
74536;BMP180;63013;51.104;-115.370;2022-09-12T11:27:53;87668.00;;;24.40
74536;BMP180;63013;51.104;-115.370;2022-09-12T11:31:14;87674.60;;;24.40
74536;BMP180;63013;51.104;-115.370;2022-09-12T11:33:53;87676.80;;;24.40
74536;BMP180;63013;51.104;-115.370;2022-09-12T11:37:05;87678.80;;;24.40
74536;BMP180;63013;51.104;-115.370;2022-09-12T11:43:38;87680.60;;;24.38
74536;BMP180;63013;51.104;-115.370;2022-09-12T11:46:37;87675.60;;;24.32
74536;BMP180;63013;51.104;-115.370;2022-09-12T11:52:33;87673.00;;;24.30
74536;BMP180;63013;51.104;-115.370;2022-09-12T11:58:11;87674.20;;;24.30
74536;BMP180;63013;51.104;-115.370;2022-09-12T12:00:50;87677.60;;;24.30
74536;BMP180;63013;51.104;-115.370;2022-09-12T12:03:48;87672.80;;;24.30
74536;BMP180;63013;51.104;-115.370;2022-09-12T12:06:25;87677.80;;;24.30
74536;BMP180;63013;51.104;-115.370;2022-09-12T12:08:57;87676.20;;;24.30
74536;BMP180;63013;51.104;-115.370;2022-09-12T12:11:41;87676.00;;;24.30
74536;BMP180;63013;51.104;-115.370;2022-09-12T12:14:41;87679.80;;;24.30
74536;BMP180;63013;51.104;-115.370;2022-09-12T12:17:25;87675.60;;;24.30
74536;BMP180;63013;51.104;-115.370;2022-09-12T12:20:19;87677.60;;;24.26
74536;BMP180;63013;51.104;-115.370;2022-09-12T12:22:58;87680.80;;;24.24
74536;BMP180;63013;51.104;-115.370;2022-09-12T12:26:02;87679.20;;;24.20
74536;BMP180;63013;51.104;-115.370;2022-09-12T12:31:20;87682.00;;;24.20
74536;BMP180;63013;51.104;-115.370;2022-09-12T12:36:36;87678.60;;;24.20
74536;BMP180;63013;51.104;-115.370;2022-09-12T12:39:58;87677.40;;;24.20
74536;BMP180;63013;51.104;-115.370;2022-09-12T12:42:56;87675.60;;;24.20
74536;BMP180;63013;51.104;-115.370;2022-09-12T12:47:59;87667.00;;;24.20
74536;BMP180;63013;51.104;-115.370;2022-09-12T12:50:41;87672.60;;;24.18
74536;BMP180;63013;51.104;-115.370;2022-09-12T12:53:27;87670.40;;;24.14
74536;BMP180;63013;51.104;-115.370;2022-09-12T12:56:02;87671.80;;;24.10
74536;BMP180;63013;51.104;-115.370;2022-09-12T12:58:36;87674.40;;;24.10
74536;BMP180;63013;51.104;-115.370;2022-09-12T13:01:15;87673.00;;;24.10
74536;BMP180;63013;51.104;-115.370;2022-09-12T13:07:06;87675.60;;;24.10
74536;BMP180;63013;51.104;-115.370;2022-09-12T13:09:43;87671.20;;;24.10
74536;BMP180;63013;51.104;-115.370;2022-09-12T13:12:21;87668.80;;;24.10
74536;BMP180;63013;51.104;-115.370;2022-09-12T13:14:59;87666.00;;;24.10
74536;BMP180;63013;51.104;-115.370;2022-09-12T13:18:27;87667.60;;;24.10
74536;BMP180;63013;51.104;-115.370;2022-09-12T13:21:12;87671.80;;;24.10
74536;BMP180;63013;51.104;-115.370;2022-09-12T13:23:41;87673.00;;;24.10
74536;BMP180;63013;51.104;-115.370;2022-09-12T13:26:40;87673.20;;;24.02
74536;BMP180;63013;51.104;-115.370;2022-09-12T13:29:37;87676.80;;;24.02
74536;BMP180;63013;51.104;-115.370;2022-09-12T13:32:32;87679.80;;;24.00
74536;BMP180;63013;51.104;-115.370;2022-09-12T13:35:41;87674.20;;;24.00
74536;BMP180;63013;51.104;-115.370;2022-09-12T13:38:57;87678.40;;;24.00
74536;BMP180;63013;51.104;-115.370;2022-09-12T13:41:53;87680.20;;;24.00
74536;BMP180;63013;51.104;-115.370;2022-09-12T13:44:29;87686.00;;;24.00
74536;BMP180;63013;51.104;-115.370;2022-09-12T13:47:50;87688.20;;;24.00
74536;BMP180;63013;51.104;-115.370;2022-09-12T13:51:01;87681.00;;;24.00
74536;BMP180;63013;51.104;-115.370;2022-09-12T13:53:49;87675.60;;;24.00
74536;BMP180;63013;51.104;-115.370;2022-09-12T13:56:21;87676.80;;;24.00
74536;BMP180;63013;51.104;-115.370;2022-09-12T13:59:19;87676.80;;;24.00
74536;BMP180;63013;51.104;-115.370;2022-09-12T14:01:47;87673.20;;;23.98
74536;BMP180;63013;51.104;-115.370;2022-09-12T14:04:28;87675.80;;;23.92
74536;BMP180;63013;51.104;-115.370;2022-09-12T14:10:04;87677.60;;;23.90
74536;BMP180;63013;51.104;-115.370;2022-09-12T14:12:39;87676.80;;;23.90
74536;BMP180;63013;51.104;-115.370;2022-09-12T14:15:24;87679.80;;;23.90
74536;BMP180;63013;51.104;-115.370;2022-09-12T14:18:05;87682.60;;;23.90
74536;BMP180;63013;51.104;-115.370;2022-09-12T14:21:00;87681.00;;;23.90
74536;BMP180;63013;51.104;-115.370;2022-09-12T14:23:40;87678.60;;;23.90
74536;BMP180;63013;51.104;-115.370;2022-09-12T14:26:32;87679.40;;;23.90
74536;BMP180;63013;51.104;-115.370;2022-09-12T14:29:13;87680.00;;;23.88
74536;BMP180;63013;51.104;-115.370;2022-09-12T14:31:43;87675.60;;;23.86
74536;BMP180;63013;51.104;-115.370;2022-09-12T14:34:19;87670.00;;;23.80
74536;BMP180;63013;51.104;-115.370;2022-09-12T14:36:52;87672.00;;;23.82
74536;BMP180;63013;51.104;-115.370;2022-09-12T14:39:46;87679.00;;;23.80
74536;BMP180;63013;51.104;-115.370;2022-09-12T14:42:20;87679.20;;;23.80
74536;BMP180;63013;51.104;-115.370;2022-09-12T14:45:29;87680.40;;;23.80
74536;BMP180;63013;51.104;-115.370;2022-09-12T14:48:18;87682.80;;;23.80
74536;BMP180;63013;51.104;-115.370;2022-09-12T14:50:53;87684.00;;;23.80
74536;BMP180;63013;51.104;-115.370;2022-09-12T14:53:32;87681.80;;;23.80
74536;BMP180;63013;51.104;-115.370;2022-09-12T14:56:18;87684.40;;;23.80
74536;BMP180;63013;51.104;-115.370;2022-09-12T15:02:38;87690.20;;;23.80
74536;BMP180;63013;51.104;-115.370;2022-09-12T15:05:48;87686.40;;;23.72
74536;BMP180;63013;51.104;-115.370;2022-09-12T15:08:25;87689.60;;;23.72
74536;BMP180;63013;51.104;-115.370;2022-09-12T15:11:36;87692.40;;;23.70
74536;BMP180;63013;51.104;-115.370;2022-09-12T15:14:46;87692.20;;;23.70
74536;BMP180;63013;51.104;-115.370;2022-09-12T15:17:42;87693.80;;;23.70
74536;BMP180;63013;51.104;-115.370;2022-09-12T15:20:18;87689.80;;;23.70
74536;BMP180;63013;51.104;-115.370;2022-09-12T15:23:54;87691.20;;;23.70
74536;BMP180;63013;51.104;-115.370;2022-09-12T15:26:16;87686.80;;;23.70
74536;BMP180;63013;51.104;-115.370;2022-09-12T15:29:04;87683.00;;;23.70
74536;BMP180;63013;51.104;-115.370;2022-09-12T15:31:37;87684.20;;;23.70
74536;BMP180;63013;51.104;-115.370;2022-09-12T15:34:13;87690.60;;;23.70
74536;BMP180;63013;51.104;-115.370;2022-09-12T15:36:40;87688.80;;;23.70
74536;BMP180;63013;51.104;-115.370;2022-09-12T15:39:14;87683.40;;;23.70
74536;BMP180;63013;51.104;-115.370;2022-09-12T15:44:24;87680.80;;;23.60
74536;BMP180;63013;51.104;-115.370;2022-09-12T15:47:15;87675.20;;;23.60
74536;BMP180;63013;51.104;-115.370;2022-09-12T15:50:03;87674.20;;;23.60
74536;BMP180;63013;51.104;-115.370;2022-09-12T15:55:24;87675.20;;;23.60
74536;BMP180;63013;51.104;-115.370;2022-09-12T15:57:55;87675.80;;;23.60
74536;BMP180;63013;51.104;-115.370;2022-09-12T16:00:31;87675.60;;;23.60
74536;BMP180;63013;51.104;-115.370;2022-09-12T16:03:26;87673.20;;;23.60
74536;BMP180;63013;51.104;-115.370;2022-09-12T16:06:04;87673.20;;;23.60
74536;BMP180;63013;51.104;-115.370;2022-09-12T16:08:38;87675.20;;;23.60
74536;BMP180;63013;51.104;-115.370;2022-09-12T16:11:12;87674.00;;;23.60
74536;BMP180;63013;51.104;-115.370;2022-09-12T16:13:43;87675.40;;;23.60
74536;BMP180;63013;51.104;-115.370;2022-09-12T16:16:14;87670.00;;;23.60
74536;BMP180;63013;51.104;-115.370;2022-09-12T16:18:45;87668.80;;;23.60
74536;BMP180;63013;51.104;-115.370;2022-09-12T16:21:44;87667.40;;;23.60
74536;BMP180;63013;51.104;-115.370;2022-09-12T16:24:12;87665.20;;;23.60
74536;BMP180;63013;51.104;-115.370;2022-09-12T16:27:02;87668.60;;;23.60
74536;BMP180;63013;51.104;-115.370;2022-09-12T16:29:50;87664.40;;;23.60
74536;BMP180;63013;51.104;-115.370;2022-09-12T16:32:23;87662.60;;;23.60
74536;BMP180;63013;51.104;-115.370;2022-09-12T16:35:10;87658.40;;;23.60
74536;BMP180;63013;51.104;-115.370;2022-09-12T16:37:41;87654.20;;;23.60
74536;BMP180;63013;51.104;-115.370;2022-09-12T16:40:09;87648.40;;;23.60
74536;BMP180;63013;51.104;-115.370;2022-09-12T16:42:37;87651.00;;;23.60
74536;BMP180;63013;51.104;-115.370;2022-09-12T16:45:04;87651.20;;;23.60
74536;BMP180;63013;51.104;-115.370;2022-09-12T16:47:32;87650.20;;;23.60
74536;BMP180;63013;51.104;-115.370;2022-09-12T16:49:59;87652.40;;;23.60